createdAt,value
2019-02-19T00:00:43.658Z,10.10
2019-02-19T00:04:48.214Z,10.10
2019-02-19T00:08:52.741Z,10.10
2019-02-19T00:12:57.287Z,10.10
2019-02-19T00:17:01.816Z,10.10
2019-02-19T00:21:06.367Z,10.10
2019-02-19T00:25:10.961Z,10.10
2019-02-19T00:29:15.499Z,10.10
2019-02-19T00:33:20.045Z,10.00
2019-02-19T00:37:24.597Z,10.00
2019-02-19T00:41:29.139Z,10.00
2019-02-19T00:45:33.640Z,10.00
2019-02-19T00:49:38.188Z,10.00
2019-02-19T00:53:42.825Z,10.00
2019-02-19T00:57:46.286Z,9.60
2019-02-19T01:01:49.730Z,9.30
2019-02-19T01:05:53.278Z,9.20
2019-02-19T01:11:45.268Z,9.00
2019-02-19T01:15:49.731Z,9.30
2019-02-19T01:19:54.266Z,9.50
2019-02-19T01:23:58.831Z,9.60
2019-02-19T01:28:03.379Z,9.60
2019-02-19T01:32:07.901Z,9.70
2019-02-19T01:36:12.423Z,9.70
2019-02-19T01:40:16.955Z,9.70
2019-02-19T01:44:22.409Z,9.70
2019-02-19T01:48:26.923Z,9.70
2019-02-19T01:52:31.495Z,9.70
2019-02-19T01:56:36.003Z,9.80
2019-02-19T02:00:40.649Z,9.80
2019-02-19T02:04:45.215Z,9.80
2019-02-19T02:08:49.730Z,9.80
2019-02-19T02:12:54.275Z,9.70
2019-02-19T02:16:58.797Z,9.70
2019-02-19T02:21:03.324Z,9.80
2019-02-19T02:25:07.906Z,9.70
2019-02-19T02:29:12.476Z,9.70
2019-02-19T02:33:17.014Z,9.70
2019-02-19T02:37:21.518Z,9.70
2019-02-19T02:41:26.039Z,9.70
2019-02-19T02:45:30.628Z,9.70
2019-02-19T02:49:35.168Z,9.70
2019-02-19T02:53:39.707Z,9.70
2019-02-19T02:57:44.244Z,9.70
2019-02-19T03:01:48.736Z,9.70
2019-02-19T03:06:09.026Z,9.70
2019-02-19T03:10:13.580Z,9.60
2019-02-19T03:14:18.156Z,9.60
2019-02-19T03:18:22.723Z,9.60
2019-02-19T03:22:27.319Z,9.60
2019-02-19T03:26:31.879Z,9.60
2019-02-19T03:30:36.432Z,9.60
2019-02-19T03:34:40.973Z,9.50
2019-02-19T03:38:45.507Z,9.60
2019-02-19T03:42:50.009Z,9.50
2019-02-19T03:46:54.559Z,9.50
2019-02-19T03:50:59.112Z,9.50
2019-02-19T03:55:03.657Z,9.40
2019-02-19T03:59:08.213Z,9.50
2019-02-19T04:03:12.766Z,9.40
2019-02-19T04:07:17.338Z,9.40
2019-02-19T04:11:21.898Z,9.40
2019-02-19T04:15:26.456Z,9.40
2019-02-19T04:19:31.008Z,9.40
2019-02-19T04:23:35.516Z,9.40
2019-02-19T04:27:40.054Z,9.40
2019-02-19T04:31:44.594Z,9.40
2019-02-19T04:35:49.138Z,9.40
2019-02-19T04:39:53.687Z,9.40
2019-02-19T04:43:58.187Z,9.40
2019-02-19T04:48:02.783Z,9.40
2019-02-19T04:52:07.308Z,9.40
2019-02-19T04:56:11.851Z,9.40
2019-02-19T05:00:16.527Z,9.40
2019-02-19T05:04:21.034Z,9.40
2019-02-19T05:08:25.640Z,9.50
2019-02-19T05:12:30.184Z,9.50
2019-02-19T05:16:40.640Z,9.50
2019-02-19T05:20:40.923Z,9.50
2019-02-19T05:24:45.647Z,9.50
2019-02-19T05:28:50.185Z,9.50
2019-02-19T05:32:54.728Z,9.40
2019-02-19T05:36:59.281Z,9.40
2019-02-19T05:41:03.810Z,9.40
2019-02-19T05:45:08.422Z,9.40
2019-02-19T05:49:12.964Z,9.40
2019-02-19T05:53:17.511Z,9.40
2019-02-19T05:57:22.059Z,9.30
2019-02-19T06:01:26.607Z,9.30
2019-02-19T06:05:31.170Z,9.30
2019-02-19T06:09:35.767Z,9.30
2019-02-19T06:13:40.363Z,9.20
2019-02-19T06:17:44.903Z,9.20
2019-02-19T06:21:49.504Z,9.20
2019-02-19T06:25:54.035Z,9.20
2019-02-19T06:29:58.571Z,9.20
2019-02-19T06:34:03.118Z,9.10
2019-02-19T06:38:07.684Z,9.10
2019-02-19T06:42:12.395Z,9.10
2019-02-19T06:46:16.971Z,9.10
2019-02-19T06:50:21.555Z,9.00
2019-02-19T06:54:26.113Z,9.00
2019-02-19T06:58:30.791Z,9.00
2019-02-19T07:02:44.601Z,9.00
2019-02-19T07:06:49.199Z,9.00
2019-02-19T07:10:53.776Z,9.00
2019-02-19T07:14:58.344Z,9.00
2019-02-19T07:19:02.929Z,9.10
2019-02-19T07:23:07.495Z,9.10
2019-02-19T07:27:12.037Z,9.10
2019-02-19T07:31:16.594Z,9.10
2019-02-19T07:35:21.166Z,9.10
2019-02-19T07:39:25.720Z,9.10
2019-02-19T07:43:30.323Z,9.10
2019-02-19T07:47:34.847Z,9.20
2019-02-19T07:51:39.393Z,9.20
2019-02-19T07:55:43.966Z,9.20
2019-02-19T07:59:48.532Z,9.20
2019-02-19T08:03:53.177Z,9.20
2019-02-19T08:07:57.827Z,9.30
2019-02-19T08:12:02.408Z,9.30
2019-02-19T08:16:06.963Z,9.40
2019-02-19T08:20:15.768Z,9.30
2019-02-19T08:24:17.764Z,9.40
2019-02-19T08:28:22.328Z,9.40
2019-02-19T08:32:26.914Z,9.40
2019-02-19T08:36:31.529Z,9.50
2019-02-19T08:40:36.570Z,9.60
2019-02-19T08:44:41.141Z,9.60
2019-02-19T08:48:45.717Z,9.70
2019-02-19T08:52:52.262Z,9.70
2019-02-19T08:56:58.237Z,9.70
2019-02-19T09:01:02.913Z,9.80
2019-02-19T09:05:07.678Z,9.80
2019-02-19T09:09:12.261Z,9.80
2019-02-19T09:13:16.844Z,9.90
2019-02-19T09:17:21.388Z,9.90
2019-02-19T09:21:25.964Z,9.90
2019-02-19T09:25:30.533Z,10.00
2019-02-19T09:29:35.082Z,10.00
2019-02-19T09:33:39.652Z,10.00
2019-02-19T09:37:44.210Z,10.00
2019-02-19T09:41:48.791Z,10.00
2019-02-19T09:45:53.363Z,10.00
2019-02-19T09:49:57.883Z,10.10
2019-02-19T09:54:02.480Z,10.20
2019-02-19T09:58:07.019Z,10.10
2019-02-19T10:02:11.583Z,9.80
2019-02-19T10:06:16.225Z,9.50
2019-02-19T10:12:56.492Z,9.50
2019-02-19T10:17:01.029Z,9.50
2019-02-19T10:21:05.577Z,9.40
2019-02-19T10:25:11.149Z,9.50
2019-02-19T10:29:15.715Z,9.50
2019-02-19T10:33:20.270Z,9.50
2019-02-19T10:37:24.822Z,9.40
2019-02-19T10:41:29.331Z,9.40
2019-02-19T10:45:33.889Z,9.40
2019-02-19T10:49:38.431Z,9.40
2019-02-19T10:53:43.001Z,9.40
2019-02-19T11:01:50.280Z,9.50
2019-02-19T11:05:54.868Z,9.50
2019-02-19T11:09:59.415Z,9.60
2019-02-19T11:14:03.991Z,9.60
2019-02-19T11:18:08.512Z,9.70
2019-02-19T11:22:13.574Z,9.70
2019-02-19T11:26:18.308Z,9.70
2019-02-19T11:30:22.858Z,9.80
2019-02-19T11:34:27.403Z,9.80
2019-02-19T11:38:31.910Z,9.80
2019-02-19T11:42:36.499Z,9.80
2019-02-19T11:46:41.068Z,10.10
2019-02-19T11:50:45.625Z,10.40
2019-02-19T11:54:50.256Z,10.50
2019-02-19T11:58:54.787Z,10.70
2019-02-19T12:02:59.344Z,10.70
2019-02-19T12:07:03.940Z,10.80
2019-02-19T12:11:08.519Z,10.90
2019-02-19T12:15:13.162Z,11.00
2019-02-19T12:19:17.773Z,11.20
2019-02-19T12:23:22.401Z,11.20
2019-02-19T12:27:26.970Z,11.10
2019-02-19T12:31:31.540Z,10.90
2019-02-19T12:35:36.101Z,10.90
2019-02-19T12:39:40.632Z,10.80
2019-02-19T12:43:45.248Z,10.80
2019-02-19T12:47:49.815Z,10.80
2019-02-19T12:51:55.602Z,10.80
2019-02-19T12:56:00.218Z,10.90
2019-02-19T13:00:05.184Z,10.90
2019-02-19T13:04:09.758Z,10.90
2019-02-19T13:08:14.343Z,10.90
2019-02-19T13:12:18.939Z,11.00
2019-02-19T13:16:23.448Z,11.00
2019-02-19T13:20:28.007Z,11.10
2019-02-19T13:24:32.572Z,11.30
2019-02-19T13:28:37.136Z,11.30
2019-02-19T13:32:41.696Z,11.40
2019-02-19T13:36:46.223Z,11.40
2019-02-19T13:40:50.776Z,11.40
2019-02-19T13:44:55.369Z,11.40
2019-02-19T13:48:59.915Z,11.30
2019-02-19T13:53:30.981Z,11.20
2019-02-19T13:57:35.530Z,11.10
2019-02-19T14:01:40.061Z,11.00
2019-02-19T14:05:44.678Z,10.90
2019-02-19T14:09:49.215Z,10.90
2019-02-19T14:14:18.519Z,10.80
2019-02-19T14:18:45.033Z,10.80
2019-02-19T14:23:10.799Z,10.60
2019-02-19T14:27:32.140Z,10.60
2019-02-19T14:32:13.801Z,10.60
2019-02-19T14:36:34.762Z,10.60
2019-02-19T14:40:57.523Z,10.60
2019-02-19T14:45:23.952Z,10.60
2019-02-19T14:49:59.581Z,10.60
2019-02-19T14:54:32.164Z,10.50
2019-02-19T14:59:01.448Z,10.50
2019-02-19T15:03:40.257Z,10.50
2019-02-19T15:07:57.202Z,10.70
2019-02-19T15:12:20.670Z,10.80
2019-02-19T15:16:49.388Z,10.90
2019-02-19T15:21:15.672Z,10.90
2019-02-19T15:25:42.215Z,10.80
2019-02-19T15:30:11.940Z,10.80
2019-02-19T15:34:34.380Z,10.80
2019-02-19T15:39:10.220Z,10.70
2019-02-19T15:43:48.937Z,10.70
2019-02-19T15:48:03.024Z,10.60
2019-02-19T15:52:25.390Z,10.50
2019-02-19T15:56:54.687Z,10.50
2019-02-19T16:01:23.984Z,10.50
2019-02-19T16:05:39.823Z,10.40
2019-02-19T16:10:02.175Z,10.30
2019-02-19T16:14:23.247Z,10.20
2019-02-19T16:18:45.301Z,10.10
2019-02-19T16:23:05.267Z,10.20
2019-02-19T16:27:22.309Z,10.50
2019-02-19T16:31:51.535Z,10.60
2019-02-19T16:36:01.891Z,10.60
2019-02-19T16:40:28.676Z,10.50
2019-02-19T16:44:51.295Z,10.60
2019-02-19T16:49:00.337Z,10.60
2019-02-19T16:53:26.643Z,10.60
2019-02-19T16:57:54.632Z,10.50
2019-02-19T17:02:17.170Z,10.40
2019-02-19T17:06:43.473Z,9.90
2019-02-19T17:11:03.435Z,9.70
2019-02-19T17:15:25.820Z,9.50
2019-02-19T17:19:52.350Z,9.30
2019-02-19T17:24:04.183Z,9.00
2019-02-19T17:28:24.932Z,9.20
2019-02-19T17:32:45.773Z,9.30
2019-02-19T17:37:09.361Z,9.40
2019-02-19T17:41:29.665Z,9.40
2019-02-19T17:45:49.666Z,9.40
2019-02-19T17:50:22.267Z,9.50
2019-02-19T17:54:41.694Z,9.50
2019-02-19T17:58:52.606Z,9.50
2019-02-19T18:03:19.008Z,9.60
2019-02-19T18:07:46.157Z,9.60
2019-02-19T18:11:59.172Z,9.60
2019-02-19T18:16:23.703Z,9.60
2019-02-19T18:20:28.232Z,9.60
2019-02-19T18:24:34.365Z,9.60
2019-02-19T18:28:39.024Z,9.50
2019-02-19T18:32:43.595Z,9.50
2019-02-19T18:36:48.145Z,9.50
2019-02-19T18:40:52.702Z,9.40
2019-02-19T18:44:57.262Z,9.40
2019-02-19T18:49:01.856Z,9.50
2019-02-19T18:53:06.435Z,9.50
2019-02-19T18:57:11.005Z,9.50
2019-02-19T19:01:15.535Z,9.50
2019-02-19T19:05:20.135Z,9.60
2019-02-19T19:09:24.685Z,9.50
2019-02-19T19:13:29.238Z,9.50
2019-02-19T19:17:33.832Z,9.60
2019-02-19T19:21:38.370Z,9.60
2019-02-19T19:25:42.935Z,9.60
2019-02-19T19:29:47.496Z,9.50
2019-02-19T19:33:52.115Z,9.50
2019-02-19T19:37:56.617Z,9.60
2019-02-19T19:42:01.172Z,9.60
2019-02-19T19:46:05.730Z,9.50
2019-02-19T19:50:10.333Z,9.50
2019-02-19T19:54:14.912Z,9.50
2019-02-19T19:58:19.422Z,9.50
2019-02-19T20:02:23.975Z,9.50
2019-02-19T20:06:28.580Z,9.50
2019-02-19T20:10:33.131Z,9.50
2019-02-19T20:14:37.719Z,9.50
2019-02-19T20:18:42.233Z,9.50
2019-02-19T20:22:46.805Z,9.50
2019-02-19T20:26:51.364Z,9.50
2019-02-19T20:30:55.919Z,9.50
2019-02-19T20:35:00.424Z,9.50
2019-02-19T20:39:05.880Z,9.50
2019-02-19T20:43:10.502Z,9.50
2019-02-19T20:47:15.054Z,9.50
2019-02-19T20:51:19.618Z,9.40
2019-02-19T20:55:24.133Z,9.50
2019-02-19T20:59:28.680Z,9.50
2019-02-19T21:03:33.227Z,9.50
2019-02-19T21:07:37.827Z,9.40
2019-02-19T21:11:42.391Z,9.50
2019-02-19T21:15:46.900Z,9.40
2019-02-19T21:19:51.444Z,9.40
2019-02-19T21:23:56.036Z,9.50
2019-02-19T21:28:00.587Z,9.50
2019-02-19T21:32:05.091Z,9.40
2019-02-19T21:36:09.681Z,9.40
2019-02-19T21:40:14.229Z,9.40
2019-02-19T21:44:19.488Z,9.40
2019-02-19T21:48:24.045Z,9.50
2019-02-19T21:52:28.583Z,9.50
2019-02-19T21:56:33.187Z,9.40
2019-02-19T22:00:37.739Z,9.40
2019-02-19T22:04:42.282Z,9.40
2019-02-19T22:08:47.173Z,9.40
2019-02-19T22:12:51.674Z,9.30
2019-02-19T22:16:56.218Z,9.40
2019-02-19T22:21:08.917Z,9.30
2019-02-19T22:25:13.492Z,9.30
2019-02-19T22:29:18.055Z,9.30
2019-02-19T22:33:22.592Z,9.20
2019-02-19T22:37:27.136Z,9.20
2019-02-19T22:41:31.684Z,9.20
2019-02-19T22:45:36.245Z,9.20
2019-02-19T22:49:40.792Z,9.20
2019-02-19T22:53:51.992Z,9.20
2019-02-19T22:57:56.587Z,9.20
2019-02-19T23:02:10.204Z,9.20
2019-02-19T23:06:14.795Z,9.10
2019-02-19T23:10:19.340Z,9.20
2019-02-19T23:14:23.870Z,9.10
2019-02-19T23:18:28.403Z,9.10
2019-02-19T23:22:32.955Z,9.10
2019-02-19T23:26:37.503Z,9.10
2019-02-19T23:30:42.084Z,9.10
2019-02-19T23:34:48.171Z,9.10
2019-02-19T23:38:52.711Z,9.10
2019-02-19T23:42:57.277Z,9.10
2019-02-19T23:47:01.831Z,9.10
2019-02-19T23:51:06.360Z,9.00
2019-02-19T23:55:10.890Z,9.00
2019-02-19T23:59:15.444Z,9.10
